sensor_id;sensor_type;location;lat;lon;timestamp;temperature;humidity
15951;DHT22;8074;48.112;11.570;2022-07-12T00:00:37;17.60;99.90
15951;DHT22;8074;48.112;11.570;2022-07-12T00:03:04;17.80;99.90
15951;DHT22;8074;48.112;11.570;2022-07-12T00:05:31;17.80;99.90
15951;DHT22;8074;48.112;11.570;2022-07-12T00:07:59;17.70;99.90
15951;DHT22;8074;48.112;11.570;2022-07-12T00:10:28;17.30;99.90
15951;DHT22;8074;48.112;11.570;2022-07-12T00:12:55;17.40;99.90
15951;DHT22;8074;48.112;11.570;2022-07-12T00:15:22;17.50;99.90
15951;DHT22;8074;48.112;11.570;2022-07-12T00:17:49;17.50;99.90
15951;DHT22;8074;48.112;11.570;2022-07-12T00:20:17;17.40;99.90
15951;DHT22;8074;48.112;11.570;2022-07-12T00:22:44;17.30;99.90
15951;DHT22;8074;48.112;11.570;2022-07-12T00:25:12;17.40;99.90
15951;DHT22;8074;48.112;11.570;2022-07-12T00:27:41;17.50;99.90
15951;DHT22;8074;48.112;11.570;2022-07-12T00:30:08;17.60;99.90
15951;DHT22;8074;48.112;11.570;2022-07-12T00:32:36;17.70;99.90
15951;DHT22;8074;48.112;11.570;2022-07-12T00:35:03;17.70;99.90
15951;DHT22;8074;48.112;11.570;2022-07-12T00:37:31;17.70;99.90
15951;DHT22;8074;48.112;11.570;2022-07-12T00:39:59;17.60;99.90
15951;DHT22;8074;48.112;11.570;2022-07-12T00:42:26;17.60;99.90
15951;DHT22;8074;48.112;11.570;2022-07-12T00:44:54;17.60;99.90
15951;DHT22;8074;48.112;11.570;2022-07-12T00:47:31;17.60;99.90
15951;DHT22;8074;48.112;11.570;2022-07-12T00:49:59;17.60;99.90
15951;DHT22;8074;48.112;11.570;2022-07-12T00:52:26;17.50;99.90
15951;DHT22;8074;48.112;11.570;2022-07-12T00:54:53;17.40;99.90
15951;DHT22;8074;48.112;11.570;2022-07-12T00:57:20;17.40;99.90
15951;DHT22;8074;48.112;11.570;2022-07-12T00:59:49;17.40;99.90
15951;DHT22;8074;48.112;11.570;2022-07-12T01:02:18;17.40;99.90
15951;DHT22;8074;48.112;11.570;2022-07-12T01:04:45;17.30;99.90
15951;DHT22;8074;48.112;11.570;2022-07-12T01:07:14;17.30;99.90
15951;DHT22;8074;48.112;11.570;2022-07-12T01:09:42;17.20;99.90
15951;DHT22;8074;48.112;11.570;2022-07-12T01:12:09;16.90;99.90
15951;DHT22;8074;48.112;11.570;2022-07-12T01:14:38;16.80;99.90
15951;DHT22;8074;48.112;11.570;2022-07-12T01:17:06;16.70;99.90
15951;DHT22;8074;48.112;11.570;2022-07-12T01:19:35;16.60;99.90
15951;DHT22;8074;48.112;11.570;2022-07-12T01:22:06;16.40;99.90
15951;DHT22;8074;48.112;11.570;2022-07-12T01:24:36;16.40;99.90
15951;DHT22;8074;48.112;11.570;2022-07-12T01:27:05;16.60;99.90
15951;DHT22;8074;48.112;11.570;2022-07-12T01:29:33;16.70;99.90
15951;DHT22;8074;48.112;11.570;2022-07-12T01:32:02;16.60;99.90
15951;DHT22;8074;48.112;11.570;2022-07-12T01:34:54;16.50;99.90
15951;DHT22;8074;48.112;11.570;2022-07-12T01:37:23;16.40;99.90
15951;DHT22;8074;48.112;11.570;2022-07-12T01:39:54;16.50;99.90
15951;DHT22;8074;48.112;11.570;2022-07-12T01:42:22;16.40;99.90
15951;DHT22;8074;48.112;11.570;2022-07-12T01:44:49;16.40;99.90
15951;DHT22;8074;48.112;11.570;2022-07-12T01:47:17;16.10;99.90
15951;DHT22;8074;48.112;11.570;2022-07-12T01:49:44;16.20;99.90
15951;DHT22;8074;48.112;11.570;2022-07-12T01:52:11;16.20;99.90
15951;DHT22;8074;48.112;11.570;2022-07-12T01:54:39;16.30;99.90
15951;DHT22;8074;48.112;11.570;2022-07-12T01:57:08;16.10;99.90
15951;DHT22;8074;48.112;11.570;2022-07-12T01:59:35;16.00;99.90
15951;DHT22;8074;48.112;11.570;2022-07-12T02:02:03;15.70;99.90
15951;DHT22;8074;48.112;11.570;2022-07-12T02:04:30;15.70;99.90
15951;DHT22;8074;48.112;11.570;2022-07-12T02:06:58;15.60;99.90
15951;DHT22;8074;48.112;11.570;2022-07-12T02:09:25;15.50;99.90
15951;DHT22;8074;48.112;11.570;2022-07-12T02:11:53;15.60;99.90
15951;DHT22;8074;48.112;11.570;2022-07-12T02:14:21;15.90;99.90
15951;DHT22;8074;48.112;11.570;2022-07-12T02:16:48;16.00;99.90
15951;DHT22;8074;48.112;11.570;2022-07-12T02:19:16;16.00;99.90
15951;DHT22;8074;48.112;11.570;2022-07-12T02:21:43;16.00;99.90
15951;DHT22;8074;48.112;11.570;2022-07-12T02:24:10;16.10;99.90
15951;DHT22;8074;48.112;11.570;2022-07-12T02:26:37;16.10;99.90
15951;DHT22;8074;48.112;11.570;2022-07-12T02:29:06;16.00;99.90
15951;DHT22;8074;48.112;11.570;2022-07-12T02:31:34;16.00;99.90
15951;DHT22;8074;48.112;11.570;2022-07-12T02:34:01;15.80;99.90
15951;DHT22;8074;48.112;11.570;2022-07-12T02:36:29;15.60;99.90
15951;DHT22;8074;48.112;11.570;2022-07-12T02:38:57;15.70;99.90
15951;DHT22;8074;48.112;11.570;2022-07-12T02:41:28;15.60;99.90
15951;DHT22;8074;48.112;11.570;2022-07-12T02:43:55;15.50;99.90
15951;DHT22;8074;48.112;11.570;2022-07-12T02:46:22;15.60;99.90
15951;DHT22;8074;48.112;11.570;2022-07-12T02:48:51;15.60;99.90
15951;DHT22;8074;48.112;11.570;2022-07-12T02:51:19;15.50;99.90
15951;DHT22;8074;48.112;11.570;2022-07-12T02:53:46;15.50;99.90
15951;DHT22;8074;48.112;11.570;2022-07-12T02:56:13;15.40;99.90
15951;DHT22;8074;48.112;11.570;2022-07-12T02:58:40;15.20;99.90
15951;DHT22;8074;48.112;11.570;2022-07-12T03:01:07;15.30;99.90
15951;DHT22;8074;48.112;11.570;2022-07-12T03:03:34;15.30;99.90
15951;DHT22;8074;48.112;11.570;2022-07-12T03:06:03;15.20;99.90
15951;DHT22;8074;48.112;11.570;2022-07-12T03:08:30;15.20;99.90
15951;DHT22;8074;48.112;11.570;2022-07-12T03:10:58;15.20;99.90
15951;DHT22;8074;48.112;11.570;2022-07-12T03:13:25;15.10;99.90
15951;DHT22;8074;48.112;11.570;2022-07-12T03:15:52;15.10;99.90
15951;DHT22;8074;48.112;11.570;2022-07-12T03:18:19;15.00;99.90
15951;DHT22;8074;48.112;11.570;2022-07-12T03:20:46;15.00;99.90
15951;DHT22;8074;48.112;11.570;2022-07-12T03:23:15;15.00;99.90
15951;DHT22;8074;48.112;11.570;2022-07-12T03:25:42;14.90;99.90
15951;DHT22;8074;48.112;11.570;2022-07-12T03:28:09;14.90;99.90
15951;DHT22;8074;48.112;11.570;2022-07-12T03:30:36;14.90;99.90
15951;DHT22;8074;48.112;11.570;2022-07-12T03:33:03;14.90;99.90
15951;DHT22;8074;48.112;11.570;2022-07-12T03:35:30;14.80;99.90
15951;DHT22;8074;48.112;11.570;2022-07-12T03:37:58;14.90;99.90
15951;DHT22;8074;48.112;11.570;2022-07-12T03:40:26;14.90;99.90
15951;DHT22;8074;48.112;11.570;2022-07-12T03:42:53;14.90;99.90
15951;DHT22;8074;48.112;11.570;2022-07-12T03:45:20;14.80;99.90
15951;DHT22;8074;48.112;11.570;2022-07-12T03:47:48;14.80;99.90
15951;DHT22;8074;48.112;11.570;2022-07-12T03:50:15;14.90;99.90
15951;DHT22;8074;48.112;11.570;2022-07-12T03:52:43;14.90;99.90
15951;DHT22;8074;48.112;11.570;2022-07-12T03:55:11;14.80;99.90
15951;DHT22;8074;48.112;11.570;2022-07-12T03:57:40;14.60;99.90
15951;DHT22;8074;48.112;11.570;2022-07-12T04:00:09;14.50;99.90
15951;DHT22;8074;48.112;11.570;2022-07-12T04:02:38;14.50;99.90
15951;DHT22;8074;48.112;11.570;2022-07-12T04:05:07;14.50;99.90
15951;DHT22;8074;48.112;11.570;2022-07-12T04:07:35;14.50;99.90
15951;DHT22;8074;48.112;11.570;2022-07-12T04:10:04;14.60;99.90
15951;DHT22;8074;48.112;11.570;2022-07-12T04:12:31;14.80;99.90
15951;DHT22;8074;48.112;11.570;2022-07-12T04:15:00;14.90;99.90
15951;DHT22;8074;48.112;11.570;2022-07-12T04:17:27;14.90;99.90
15951;DHT22;8074;48.112;11.570;2022-07-12T04:19:54;14.80;99.90
15951;DHT22;8074;48.112;11.570;2022-07-12T04:22:21;15.00;99.90
15951;DHT22;8074;48.112;11.570;2022-07-12T04:24:48;15.00;99.90
15951;DHT22;8074;48.112;11.570;2022-07-12T04:27:15;15.00;99.90
15951;DHT22;8074;48.112;11.570;2022-07-12T04:29:42;14.80;99.90
15951;DHT22;8074;48.112;11.570;2022-07-12T04:32:13;14.60;99.90
15951;DHT22;8074;48.112;11.570;2022-07-12T04:34:41;14.50;99.90
15951;DHT22;8074;48.112;11.570;2022-07-12T04:37:08;14.70;99.90
15951;DHT22;8074;48.112;11.570;2022-07-12T04:39:35;14.80;99.90
15951;DHT22;8074;48.112;11.570;2022-07-12T04:42:02;14.90;99.90
15951;DHT22;8074;48.112;11.570;2022-07-12T04:44:30;15.00;99.90
15951;DHT22;8074;48.112;11.570;2022-07-12T04:46:57;14.90;99.90
15951;DHT22;8074;48.112;11.570;2022-07-12T04:49:25;15.00;99.90
15951;DHT22;8074;48.112;11.570;2022-07-12T04:51:52;15.10;99.90
15951;DHT22;8074;48.112;11.570;2022-07-12T04:54:22;15.30;99.90
15951;DHT22;8074;48.112;11.570;2022-07-12T04:57:03;15.40;99.90
15951;DHT22;8074;48.112;11.570;2022-07-12T04:59:31;15.30;99.90
15951;DHT22;8074;48.112;11.570;2022-07-12T05:01:58;15.40;99.90
15951;DHT22;8074;48.112;11.570;2022-07-12T05:04:27;15.30;99.90
15951;DHT22;8074;48.112;11.570;2022-07-12T05:06:54;15.30;99.90
15951;DHT22;8074;48.112;11.570;2022-07-12T05:09:21;15.50;99.90
15951;DHT22;8074;48.112;11.570;2022-07-12T05:11:48;15.60;99.90
15951;DHT22;8074;48.112;11.570;2022-07-12T05:14:15;15.80;99.90
15951;DHT22;8074;48.112;11.570;2022-07-12T05:16:42;15.90;99.90
15951;DHT22;8074;48.112;11.570;2022-07-12T05:19:10;15.90;99.90
15951;DHT22;8074;48.112;11.570;2022-07-12T05:21:59;16.10;99.90
15951;DHT22;8074;48.112;11.570;2022-07-12T05:24:28;15.80;99.90
15951;DHT22;8074;48.112;11.570;2022-07-12T05:26:55;15.90;99.90
15951;DHT22;8074;48.112;11.570;2022-07-12T05:29:39;16.00;99.90
15951;DHT22;8074;48.112;11.570;2022-07-12T05:32:08;16.20;99.90
15951;DHT22;8074;48.112;11.570;2022-07-12T05:34:37;16.30;99.90
15951;DHT22;8074;48.112;11.570;2022-07-12T05:37:09;16.50;99.90
15951;DHT22;8074;48.112;11.570;2022-07-12T05:39:38;16.50;99.90
15951;DHT22;8074;48.112;11.570;2022-07-12T05:42:06;16.60;99.90
15951;DHT22;8074;48.112;11.570;2022-07-12T05:44:34;16.60;99.90
15951;DHT22;8074;48.112;11.570;2022-07-12T05:47:01;16.70;99.90
15951;DHT22;8074;48.112;11.570;2022-07-12T05:49:33;16.80;99.90
15951;DHT22;8074;48.112;11.570;2022-07-12T05:52:00;16.90;99.90
15951;DHT22;8074;48.112;11.570;2022-07-12T05:54:46;16.90;99.90
15951;DHT22;8074;48.112;11.570;2022-07-12T05:57:14;16.90;99.90
15951;DHT22;8074;48.112;11.570;2022-07-12T05:59:42;16.80;99.90
15951;DHT22;8074;48.112;11.570;2022-07-12T06:02:11;17.00;99.90
15951;DHT22;8074;48.112;11.570;2022-07-12T06:04:38;16.90;99.90
15951;DHT22;8074;48.112;11.570;2022-07-12T06:07:06;16.90;99.90
15951;DHT22;8074;48.112;11.570;2022-07-12T06:09:33;17.00;99.90
15951;DHT22;8074;48.112;11.570;2022-07-12T06:12:01;17.00;99.90
15951;DHT22;8074;48.112;11.570;2022-07-12T06:14:29;17.10;99.90
15951;DHT22;8074;48.112;11.570;2022-07-12T06:16:56;17.20;99.90
15951;DHT22;8074;48.112;11.570;2022-07-12T06:19:23;17.20;99.90
15951;DHT22;8074;48.112;11.570;2022-07-12T06:21:50;17.30;99.90
15951;DHT22;8074;48.112;11.570;2022-07-12T06:24:17;17.20;99.90
15951;DHT22;8074;48.112;11.570;2022-07-12T06:26:45;17.40;99.90
15951;DHT22;8074;48.112;11.570;2022-07-12T06:29:13;17.40;99.90
15951;DHT22;8074;48.112;11.570;2022-07-12T06:31:40;17.20;99.90
15951;DHT22;8074;48.112;11.570;2022-07-12T06:34:07;17.30;99.90
15951;DHT22;8074;48.112;11.570;2022-07-12T06:36:34;17.60;99.90
15951;DHT22;8074;48.112;11.570;2022-07-12T06:39:01;17.60;99.90
15951;DHT22;8074;48.112;11.570;2022-07-12T06:41:28;17.80;99.90
15951;DHT22;8074;48.112;11.570;2022-07-12T06:43:55;18.00;99.90
15951;DHT22;8074;48.112;11.570;2022-07-12T06:46:24;18.00;99.90
15951;DHT22;8074;48.112;11.570;2022-07-12T06:48:51;18.00;99.90
15951;DHT22;8074;48.112;11.570;2022-07-12T06:51:18;18.00;99.90
15951;DHT22;8074;48.112;11.570;2022-07-12T06:53:45;18.10;99.90
15951;DHT22;8074;48.112;11.570;2022-07-12T06:56:12;18.20;99.90
15951;DHT22;8074;48.112;11.570;2022-07-12T06:58:39;18.30;99.90
15951;DHT22;8074;48.112;11.570;2022-07-12T07:01:06;18.00;99.90
15951;DHT22;8074;48.112;11.570;2022-07-12T07:03:34;18.10;99.90
15951;DHT22;8074;48.112;11.570;2022-07-12T07:06:01;18.10;99.90
15951;DHT22;8074;48.112;11.570;2022-07-12T07:08:28;18.30;99.90
15951;DHT22;8074;48.112;11.570;2022-07-12T07:10:57;18.40;99.90
15951;DHT22;8074;48.112;11.570;2022-07-12T07:13:24;18.60;99.90
15951;DHT22;8074;48.112;11.570;2022-07-12T07:15:51;18.60;99.90
15951;DHT22;8074;48.112;11.570;2022-07-12T07:18:17;18.50;99.90
15951;DHT22;8074;48.112;11.570;2022-07-12T07:20:46;18.50;99.90
15951;DHT22;8074;48.112;11.570;2022-07-12T07:23:13;18.70;99.90
15951;DHT22;8074;48.112;11.570;2022-07-12T07:25:51;18.90;99.90
15951;DHT22;8074;48.112;11.570;2022-07-12T07:28:18;18.90;99.90
15951;DHT22;8074;48.112;11.570;2022-07-12T07:30:45;18.90;99.90
15951;DHT22;8074;48.112;11.570;2022-07-12T07:33:20;19.10;99.90
15951;DHT22;8074;48.112;11.570;2022-07-12T07:35:49;19.10;99.90
15951;DHT22;8074;48.112;11.570;2022-07-12T07:38:17;19.10;99.90
15951;DHT22;8074;48.112;11.570;2022-07-12T07:40:46;19.20;99.90
15951;DHT22;8074;48.112;11.570;2022-07-12T07:43:13;19.60;99.90
15951;DHT22;8074;48.112;11.570;2022-07-12T07:45:40;19.80;99.90
15951;DHT22;8074;48.112;11.570;2022-07-12T07:48:07;19.80;99.90
15951;DHT22;8074;48.112;11.570;2022-07-12T07:50:36;19.90;99.90
15951;DHT22;8074;48.112;11.570;2022-07-12T07:53:06;19.80;99.90
15951;DHT22;8074;48.112;11.570;2022-07-12T07:55:33;19.60;99.90
15951;DHT22;8074;48.112;11.570;2022-07-12T07:58:00;19.60;99.90
15951;DHT22;8074;48.112;11.570;2022-07-12T08:00:27;19.80;99.90
15951;DHT22;8074;48.112;11.570;2022-07-12T08:02:54;19.80;99.90
15951;DHT22;8074;48.112;11.570;2022-07-12T08:05:21;19.90;99.90
15951;DHT22;8074;48.112;11.570;2022-07-12T08:07:49;20.10;99.90
15951;DHT22;8074;48.112;11.570;2022-07-12T08:10:17;20.20;99.90
15951;DHT22;8074;48.112;11.570;2022-07-12T08:12:44;20.30;99.90
15951;DHT22;8074;48.112;11.570;2022-07-12T08:15:11;20.90;99.90
15951;DHT22;8074;48.112;11.570;2022-07-12T08:17:38;21.40;99.90
15951;DHT22;8074;48.112;11.570;2022-07-12T08:20:05;22.10;99.90
15951;DHT22;8074;48.112;11.570;2022-07-12T08:22:32;22.80;99.90
15951;DHT22;8074;48.112;11.570;2022-07-12T08:24:59;22.40;99.90
15951;DHT22;8074;48.112;11.570;2022-07-12T08:27:30;22.90;99.90
15951;DHT22;8074;48.112;11.570;2022-07-12T08:29:58;23.90;99.90
15951;DHT22;8074;48.112;11.570;2022-07-12T08:32:24;24.00;99.90
15951;DHT22;8074;48.112;11.570;2022-07-12T08:34:51;24.10;99.90
15951;DHT22;8074;48.112;11.570;2022-07-12T08:37:21;24.10;99.90
15951;DHT22;8074;48.112;11.570;2022-07-12T08:39:48;23.70;99.90
15951;DHT22;8074;48.112;11.570;2022-07-12T08:42:17;23.90;99.90
15951;DHT22;8074;48.112;11.570;2022-07-12T08:44:53;24.80;99.90
15951;DHT22;8074;48.112;11.570;2022-07-12T08:47:21;25.20;99.90
15951;DHT22;8074;48.112;11.570;2022-07-12T08:50:09;25.30;99.90
15951;DHT22;8074;48.112;11.570;2022-07-12T08:52:39;24.80;99.90
15951;DHT22;8074;48.112;11.570;2022-07-12T08:55:17;24.60;99.90
15951;DHT22;8074;48.112;11.570;2022-07-12T08:57:44;24.50;99.90
15951;DHT22;8074;48.112;11.570;2022-07-12T09:00:13;23.60;99.90
15951;DHT22;8074;48.112;11.570;2022-07-12T09:02:48;22.90;99.90
15951;DHT22;8074;48.112;11.570;2022-07-12T09:05:16;23.10;99.90
15951;DHT22;8074;48.112;11.570;2022-07-12T09:07:44;23.20;99.90
15951;DHT22;8074;48.112;11.570;2022-07-12T09:10:12;23.10;99.90
15951;DHT22;8074;48.112;11.570;2022-07-12T09:12:40;24.40;99.90
15951;DHT22;8074;48.112;11.570;2022-07-12T09:15:16;24.90;99.90
15951;DHT22;8074;48.112;11.570;2022-07-12T09:17:56;24.10;99.90
15951;DHT22;8074;48.112;11.570;2022-07-12T09:20:27;23.70;99.90
15951;DHT22;8074;48.112;11.570;2022-07-12T09:22:57;24.50;99.90
15951;DHT22;8074;48.112;11.570;2022-07-12T09:25:24;24.80;99.90
15951;DHT22;8074;48.112;11.570;2022-07-12T09:27:54;24.10;99.90
15951;DHT22;8074;48.112;11.570;2022-07-12T09:30:24;24.00;99.90
15951;DHT22;8074;48.112;11.570;2022-07-12T09:32:57;24.20;99.90
15951;DHT22;8074;48.112;11.570;2022-07-12T09:35:42;23.80;99.90
15951;DHT22;8074;48.112;11.570;2022-07-12T09:38:27;23.40;99.90
15951;DHT22;8074;48.112;11.570;2022-07-12T09:40:54;22.80;99.90
15951;DHT22;8074;48.112;11.570;2022-07-12T09:43:23;22.50;99.90
15951;DHT22;8074;48.112;11.570;2022-07-12T09:45:52;22.60;99.90
15951;DHT22;8074;48.112;11.570;2022-07-12T09:48:20;22.70;99.90
15951;DHT22;8074;48.112;11.570;2022-07-12T09:50:49;22.90;99.90
15951;DHT22;8074;48.112;11.570;2022-07-12T09:53:20;22.90;99.90
15951;DHT22;8074;48.112;11.570;2022-07-12T09:55:51;22.60;99.90
15951;DHT22;8074;48.112;11.570;2022-07-12T09:58:23;22.50;99.90
15951;DHT22;8074;48.112;11.570;2022-07-12T10:00:53;22.60;99.90
15951;DHT22;8074;48.112;11.570;2022-07-12T10:03:23;23.10;99.90
15951;DHT22;8074;48.112;11.570;2022-07-12T10:05:52;23.40;99.90
15951;DHT22;8074;48.112;11.570;2022-07-12T10:08:22;23.00;99.90
15951;DHT22;8074;48.112;11.570;2022-07-12T10:10:49;23.50;99.90
15951;DHT22;8074;48.112;11.570;2022-07-12T10:13:18;23.10;99.90
15951;DHT22;8074;48.112;11.570;2022-07-12T10:15:46;23.30;99.90
15951;DHT22;8074;48.112;11.570;2022-07-12T10:18:20;23.60;99.90
15951;DHT22;8074;48.112;11.570;2022-07-12T10:20:48;24.00;99.90
15951;DHT22;8074;48.112;11.570;2022-07-12T10:23:31;24.70;99.90
15951;DHT22;8074;48.112;11.570;2022-07-12T10:29:03;24.60;99.90
15951;DHT22;8074;48.112;11.570;2022-07-12T10:31:33;23.80;99.90
15951;DHT22;8074;48.112;11.570;2022-07-12T10:34:20;24.20;99.90
15951;DHT22;8074;48.112;11.570;2022-07-12T10:37:09;23.70;99.90
15951;DHT22;8074;48.112;11.570;2022-07-12T10:39:37;24.80;99.90
15951;DHT22;8074;48.112;11.570;2022-07-12T10:42:14;26.90;99.90
15951;DHT22;8074;48.112;11.570;2022-07-12T10:44:44;27.80;99.90
15951;DHT22;8074;48.112;11.570;2022-07-12T10:47:12;27.70;99.90
15951;DHT22;8074;48.112;11.570;2022-07-12T10:49:50;26.90;99.90
15951;DHT22;8074;48.112;11.570;2022-07-12T10:52:25;25.20;99.90
15951;DHT22;8074;48.112;11.570;2022-07-12T10:55:17;24.60;99.90
15951;DHT22;8074;48.112;11.570;2022-07-12T10:57:46;24.50;99.90
15951;DHT22;8074;48.112;11.570;2022-07-12T11:00:16;25.80;99.90
15951;DHT22;8074;48.112;11.570;2022-07-12T11:02:45;27.10;99.90
15951;DHT22;8074;48.112;11.570;2022-07-12T11:05:14;28.50;99.90
15951;DHT22;8074;48.112;11.570;2022-07-12T11:07:41;30.50;99.90
15951;DHT22;8074;48.112;11.570;2022-07-12T11:10:11;30.10;99.90
15951;DHT22;8074;48.112;11.570;2022-07-12T11:12:38;28.40;99.90
15951;DHT22;8074;48.112;11.570;2022-07-12T11:15:07;26.50;99.90
15951;DHT22;8074;48.112;11.570;2022-07-12T11:17:34;25.90;99.90
15951;DHT22;8074;48.112;11.570;2022-07-12T11:20:07;26.60;99.90
15951;DHT22;8074;48.112;11.570;2022-07-12T11:22:37;26.10;99.90
15951;DHT22;8074;48.112;11.570;2022-07-12T11:25:07;25.80;99.90
15951;DHT22;8074;48.112;11.570;2022-07-12T11:27:34;26.80;99.90
15951;DHT22;8074;48.112;11.570;2022-07-12T11:30:03;28.30;99.90
15951;DHT22;8074;48.112;11.570;2022-07-12T11:32:34;29.60;99.90
15951;DHT22;8074;48.112;11.570;2022-07-12T11:35:02;28.90;99.90
15951;DHT22;8074;48.112;11.570;2022-07-12T11:37:30;28.40;99.90
15951;DHT22;8074;48.112;11.570;2022-07-12T11:39:58;27.10;99.90
15951;DHT22;8074;48.112;11.570;2022-07-12T11:42:25;26.10;99.90
15951;DHT22;8074;48.112;11.570;2022-07-12T11:44:52;25.30;99.90
15951;DHT22;8074;48.112;11.570;2022-07-12T11:47:20;24.80;99.90
15951;DHT22;8074;48.112;11.570;2022-07-12T11:49:50;24.90;99.90
15951;DHT22;8074;48.112;11.570;2022-07-12T11:52:18;24.30;99.90
15951;DHT22;8074;48.112;11.570;2022-07-12T11:54:46;24.30;99.90
15951;DHT22;8074;48.112;11.570;2022-07-12T11:57:19;26.00;99.90
15951;DHT22;8074;48.112;11.570;2022-07-12T11:59:47;26.80;99.90
15951;DHT22;8074;48.112;11.570;2022-07-12T12:02:16;27.30;99.90
15951;DHT22;8074;48.112;11.570;2022-07-12T12:04:45;27.40;99.90
15951;DHT22;8074;48.112;11.570;2022-07-12T12:07:12;27.20;99.90
15951;DHT22;8074;48.112;11.570;2022-07-12T12:10:01;26.80;99.90
15951;DHT22;8074;48.112;11.570;2022-07-12T12:12:35;27.20;99.90
15951;DHT22;8074;48.112;11.570;2022-07-12T12:15:04;28.60;99.90
15951;DHT22;8074;48.112;11.570;2022-07-12T12:17:32;28.90;99.90
15951;DHT22;8074;48.112;11.570;2022-07-12T12:20:11;29.90;99.90
15951;DHT22;8074;48.112;11.570;2022-07-12T12:22:39;32.00;99.90
15951;DHT22;8074;48.112;11.570;2022-07-12T12:25:06;33.20;99.90
15951;DHT22;8074;48.112;11.570;2022-07-12T12:27:47;32.20;99.90
15951;DHT22;8074;48.112;11.570;2022-07-12T12:30:15;31.50;99.90
15951;DHT22;8074;48.112;11.570;2022-07-12T12:32:47;31.00;99.90
15951;DHT22;8074;48.112;11.570;2022-07-12T12:35:15;31.70;99.90
15951;DHT22;8074;48.112;11.570;2022-07-12T12:37:52;31.30;99.90
15951;DHT22;8074;48.112;11.570;2022-07-12T12:40:21;31.00;99.90
15951;DHT22;8074;48.112;11.570;2022-07-12T12:42:52;29.20;99.90
15951;DHT22;8074;48.112;11.570;2022-07-12T12:45:23;28.30;99.90
15951;DHT22;8074;48.112;11.570;2022-07-12T12:47:55;29.40;99.90
15951;DHT22;8074;48.112;11.570;2022-07-12T12:50:39;30.80;99.90
15951;DHT22;8074;48.112;11.570;2022-07-12T12:53:07;33.40;99.90
15951;DHT22;8074;48.112;11.570;2022-07-12T12:55:35;34.30;99.70
15951;DHT22;8074;48.112;11.570;2022-07-12T12:58:04;34.50;99.60
15951;DHT22;8074;48.112;11.570;2022-07-12T13:00:31;35.30;98.70
15951;DHT22;8074;48.112;11.570;2022-07-12T13:02:58;34.50;98.70
15951;DHT22;8074;48.112;11.570;2022-07-12T13:05:27;34.40;98.20
15951;DHT22;8074;48.112;11.570;2022-07-12T13:07:54;32.40;99.10
15951;DHT22;8074;48.112;11.570;2022-07-12T13:10:22;31.40;99.80
15951;DHT22;8074;48.112;11.570;2022-07-12T13:12:50;30.20;99.90
15951;DHT22;8074;48.112;11.570;2022-07-12T13:15:18;31.40;99.90
15951;DHT22;8074;48.112;11.570;2022-07-12T13:17:45;32.90;98.90
15951;DHT22;8074;48.112;11.570;2022-07-12T13:20:13;35.10;97.90
15951;DHT22;8074;48.112;11.570;2022-07-12T13:22:41;34.30;97.50
15951;DHT22;8074;48.112;11.570;2022-07-12T13:25:09;32.30;98.60
15951;DHT22;8074;48.112;11.570;2022-07-12T13:27:37;32.90;98.70
15951;DHT22;8074;48.112;11.570;2022-07-12T13:30:05;33.20;98.20
15951;DHT22;8074;48.112;11.570;2022-07-12T13:32:34;32.50;98.10
15951;DHT22;8074;48.112;11.570;2022-07-12T13:35:01;32.90;97.50
15951;DHT22;8074;48.112;11.570;2022-07-12T13:37:28;32.40;97.20
15951;DHT22;8074;48.112;11.570;2022-07-12T13:39:55;31.30;98.20
15951;DHT22;8074;48.112;11.570;2022-07-12T13:42:38;30.00;98.80
15951;DHT22;8074;48.112;11.570;2022-07-12T13:45:06;30.60;97.90
15951;DHT22;8074;48.112;11.570;2022-07-12T13:47:34;31.60;97.30
15951;DHT22;8074;48.112;11.570;2022-07-12T13:50:01;32.20;97.20
15951;DHT22;8074;48.112;11.570;2022-07-12T13:52:28;33.40;96.60
15951;DHT22;8074;48.112;11.570;2022-07-12T13:54:56;34.30;96.00
15951;DHT22;8074;48.112;11.570;2022-07-12T13:57:23;35.60;95.20
15951;DHT22;8074;48.112;11.570;2022-07-12T13:59:50;34.20;95.30
15951;DHT22;8074;48.112;11.570;2022-07-12T14:02:18;32.20;96.80
15951;DHT22;8074;48.112;11.570;2022-07-12T14:04:46;32.40;97.20
15951;DHT22;8074;48.112;11.570;2022-07-12T14:07:13;32.20;97.00
15951;DHT22;8074;48.112;11.570;2022-07-12T14:09:40;31.50;96.20
15951;DHT22;8074;48.112;11.570;2022-07-12T14:12:07;32.00;96.50
15951;DHT22;8074;48.112;11.570;2022-07-12T14:14:35;31.80;96.00
15951;DHT22;8074;48.112;11.570;2022-07-12T14:17:19;31.60;96.20
15951;DHT22;8074;48.112;11.570;2022-07-12T14:19:48;31.20;96.80
15951;DHT22;8074;48.112;11.570;2022-07-12T14:22:15;34.10;95.70
15951;DHT22;8074;48.112;11.570;2022-07-12T14:24:42;36.10;93.70
15951;DHT22;8074;48.112;11.570;2022-07-12T14:27:09;37.70;93.60
15951;DHT22;8074;48.112;11.570;2022-07-12T14:29:36;37.60;92.60
15951;DHT22;8074;48.112;11.570;2022-07-12T14:32:04;38.80;92.70
15951;DHT22;8074;48.112;11.570;2022-07-12T14:34:31;38.50;91.40
15951;DHT22;8074;48.112;11.570;2022-07-12T14:36:59;37.60;91.90
15951;DHT22;8074;48.112;11.570;2022-07-12T14:39:27;36.00;91.80
15951;DHT22;8074;48.112;11.570;2022-07-12T14:41:54;35.90;91.60
15951;DHT22;8074;48.112;11.570;2022-07-12T14:44:21;35.40;91.60
15951;DHT22;8074;48.112;11.570;2022-07-12T14:46:48;36.10;91.90
15951;DHT22;8074;48.112;11.570;2022-07-12T14:49:15;36.10;91.30
15951;DHT22;8074;48.112;11.570;2022-07-12T14:51:43;35.20;91.30
15951;DHT22;8074;48.112;11.570;2022-07-12T14:54:11;35.60;91.30
15951;DHT22;8074;48.112;11.570;2022-07-12T14:56:38;35.20;92.00
15951;DHT22;8074;48.112;11.570;2022-07-12T14:59:05;35.30;92.20
15951;DHT22;8074;48.112;11.570;2022-07-12T15:01:33;35.20;91.70
15951;DHT22;8074;48.112;11.570;2022-07-12T15:04:01;36.10;91.80
15951;DHT22;8074;48.112;11.570;2022-07-12T15:06:27;34.10;91.40
15951;DHT22;8074;48.112;11.570;2022-07-12T15:08:54;32.20;93.00
15951;DHT22;8074;48.112;11.570;2022-07-12T15:11:23;31.60;93.90
15951;DHT22;8074;48.112;11.570;2022-07-12T15:13:50;31.10;94.00
15951;DHT22;8074;48.112;11.570;2022-07-12T15:16:17;32.40;93.20
15951;DHT22;8074;48.112;11.570;2022-07-12T15:18:44;33.00;92.70
15951;DHT22;8074;48.112;11.570;2022-07-12T15:21:12;34.40;92.00
15951;DHT22;8074;48.112;11.570;2022-07-12T15:23:39;35.60;91.30
15951;DHT22;8074;48.112;11.570;2022-07-12T15:26:06;33.80;91.40
15951;DHT22;8074;48.112;11.570;2022-07-12T15:28:35;33.80;91.60
15951;DHT22;8074;48.112;11.570;2022-07-12T15:31:15;35.30;91.00
15951;DHT22;8074;48.112;11.570;2022-07-12T15:33:42;36.50;90.10
15951;DHT22;8074;48.112;11.570;2022-07-12T15:36:10;37.70;88.50
15951;DHT22;8074;48.112;11.570;2022-07-12T15:38:38;37.40;88.30
15951;DHT22;8074;48.112;11.570;2022-07-12T15:41:07;38.00;88.10
15951;DHT22;8074;48.112;11.570;2022-07-12T15:43:36;36.70;88.40